createdAt,value
2022-08-12T00:02:19.477Z,22.3
2022-08-12T00:16:41.543Z,21.9
2022-08-12T00:31:08.425Z,21.6
2022-08-12T00:45:36.203Z,21.7
2022-08-12T01:00:04.734Z,21.5
2022-08-12T01:14:38.761Z,21.5
2022-08-12T01:29:07.777Z,21.4
2022-08-12T01:43:31.483Z,21.2
2022-08-12T01:58:01.275Z,20.6
2022-08-12T02:12:34.083Z,20.8
2022-08-12T02:26:54.199Z,20.7
2022-08-12T02:41:20.052Z,19.5
2022-08-12T02:55:49.402Z,19.8
2022-08-12T03:10:18.040Z,20.2
2022-08-12T03:24:57.162Z,19.9
2022-08-12T03:39:35.283Z,18.6
2022-08-12T03:53:54.677Z,18.7
2022-08-12T04:08:22.238Z,18.8
2022-08-12T04:22:50.274Z,18.9
2022-08-12T04:37:18.724Z,19.4
2022-08-12T04:51:53.578Z,19.2
2022-08-12T05:06:26.259Z,19.8
2022-08-12T05:20:44.895Z,20.1
2022-08-12T05:35:12.247Z,20.3
2022-08-12T05:49:40.370Z,20.4
2022-08-12T06:04:09.362Z,20.9
2022-08-12T06:18:40.906Z,21
2022-08-12T06:33:11.536Z,21.3
2022-08-12T06:48:00.454Z,21.6
2022-08-12T07:02:31.579Z,22.3
2022-08-12T07:17:00.631Z,22.9
2022-08-12T07:31:36.483Z,23.7
2022-08-12T07:46:14.871Z,28.6
2022-08-12T08:00:48.398Z,30.8
2022-08-12T08:15:19.782Z,31.9
2022-08-12T08:29:50.499Z,32.4
2022-08-12T08:44:18.497Z,33
2022-08-12T08:58:55.056Z,33.7
2022-08-12T09:13:29.492Z,33.4
2022-08-12T09:28:31.056Z,33.6
2022-08-12T09:43:02.382Z,31.7
2022-08-12T09:58:08.538Z,31.7
2022-08-12T10:13:06.885Z,32.4
2022-08-12T10:28:04.421Z,32.5
2022-08-12T10:42:39.879Z,32.5
2022-08-12T10:57:08.845Z,32.6
2022-08-12T11:12:36.458Z,32.5
2022-08-12T11:27:18.158Z,33.6
2022-08-12T11:41:51.026Z,33.4
2022-08-12T11:56:19.376Z,33.1
2022-08-12T12:10:42.307Z,33.3
2022-08-12T12:25:09.094Z,33.5
2022-08-12T12:39:50.201Z,33.5
2022-08-12T12:54:11.656Z,33.6
2022-08-12T13:08:38.777Z,33.8
2022-08-12T13:23:07.129Z,33.4
2022-08-12T13:37:54.595Z,33.3
2022-08-12T13:52:26.258Z,33.5
2022-08-12T14:06:54.674Z,33.3
2022-08-12T14:21:18.289Z,32.4
2022-08-12T14:35:51.865Z,33.5
2022-08-12T14:50:41.856Z,33.1
2022-08-12T15:07:48.867Z,33.3
2022-08-12T15:22:36.420Z,33.1
2022-08-12T15:37:01.873Z,32.9
2022-08-12T15:51:27.237Z,32.5
2022-08-12T16:06:17.187Z,32.6
2022-08-12T16:21:11.001Z,32.1
2022-08-12T16:36:03.537Z,31.9
2022-08-12T16:50:31.165Z,31.9
2022-08-12T17:04:55.884Z,31.1
2022-08-12T17:19:41.734Z,31.3
2022-08-12T17:34:45.051Z,31
2022-08-12T17:49:19.094Z,30.7
2022-08-12T18:04:20.550Z,30.2
2022-08-12T18:18:46.836Z,30.1
2022-08-12T18:33:13.301Z,29.7
2022-08-12T18:47:46.984Z,29.2
2022-08-12T19:02:21.170Z,28.4
2022-08-12T19:16:47.607Z,27.9
2022-08-12T19:31:09.200Z,27.4
2022-08-12T19:45:40.034Z,27.1
2022-08-12T20:00:06.538Z,26.5
2022-08-12T20:14:28.577Z,26.1
2022-08-12T20:28:57.023Z,26
2022-08-12T20:43:28.194Z,25.5
2022-08-12T20:58:02.301Z,24.9
2022-08-12T21:12:32.753Z,24.7
2022-08-12T21:26:58.061Z,24.5
2022-08-12T21:41:24.461Z,24.3
2022-08-12T21:55:51.641Z,24
2022-08-12T22:10:18.430Z,24
2022-08-12T23:02:42.349Z,23.3
2022-08-12T23:17:21.329Z,23.1
2022-08-12T23:32:04.240Z,22.7
2022-08-12T23:46:26.430Z,22.4
